Time;durP1;ratioP1;P1;durP2;ratioP2;P2;SDS_P1;SDS_P2;PMS_P1;PMS_P2;Temp;Humidity;BMP_temperature;BMP_pressure;BME280_temperature;BME280_humidity;BME280_pressure;Samples;Min_cycle;Max_cycle;Signal;HPM_P1;HPM_P2
2023/06/26 00:00:11;;;;;;;6.40;4.50;;;;;;;;;;5018942;28;20037;-69
2023/06/26 00:02:37;;;;;;;7.45;4.95;;;;;;;;;;5054956;28;20029;-70
2023/06/26 00:05:02;;;;;;;8.20;4.80;;;;;;;;;;5037637;28;20029;-69
2023/06/26 00:07:29;;;;;;;5.85;4.65;;;;;;;;;;5040727;28;20581;-70
2023/06/26 00:09:55;;;;;;;7.70;5.18;;;;;;;;;;5053999;28;20029;-69
2023/06/26 00:12:21;;;;;;;7.68;4.57;;;;;;;;;;5021648;28;20040;-70
2023/06/26 00:14:46;;;;;;;8.63;5.13;;;;;;;;;;5032929;28;20430;-71
2023/06/26 00:17:11;;;;;;;7.75;4.80;;;;;;;;;;5051107;28;20053;-69
2023/06/26 00:19:37;;;;;;;8.63;4.47;;;;;;;;;;5031125;28;20049;-70
2023/06/26 00:22:02;;;;;;;5.00;4.50;;;;;;;;;;5029800;28;20044;-71
2023/06/26 00:24:28;;;;;;;9.73;5.10;;;;;;;;;;5052178;28;20151;-71
2023/06/26 00:26:53;;;;;;;19.45;5.05;;;;;;;;;;5033953;28;20361;-69
2023/06/26 00:29:19;;;;;;;8.43;5.03;;;;;;;;;;5041457;28;20487;-70
2023/06/26 00:31:44;;;;;;;6.28;4.88;;;;;;;;;;5044728;28;20044;-70
2023/06/26 00:34:09;;;;;;;13.93;4.40;;;;;;;;;;5050823;28;20033;-72
2023/06/26 00:36:35;;;;;;;6.63;4.82;;;;;;;;;;5021845;28;20584;-71
2023/06/26 00:39:00;;;;;;;7.95;5.05;;;;;;;;;;5048908;28;20143;-66
2023/06/26 00:41:26;;;;;;;10.35;4.90;;;;;;;;;;5048258;28;20101;-68
2023/06/26 00:43:51;;;;;;;8.70;5.38;;;;;;;;;;5055480;28;20033;-70
2023/06/26 00:46:16;;;;;;;8.98;4.75;;;;;;;;;;5061090;28;20041;-69
2023/06/26 00:48:44;;;;;;;12.25;5.88;;;;;;;;;;5019079;28;20048;-71
2023/06/26 00:51:10;;;;;;;7.15;4.82;;;;;;;;;;5036983;28;20098;-71
2023/06/26 00:53:36;;;;;;;8.65;5.10;;;;;;;;;;5039519;28;20025;-66
2023/06/26 00:56:05;;;;;;;5.85;4.97;;;;;;;;;;5030693;28;20044;-63
2023/06/26 00:58:30;;;;;;;6.55;5.20;;;;;;;;;;5038409;28;20033;-62
2023/06/26 01:00:56;;;;;;;6.70;4.68;;;;;;;;;;5039299;28;20044;-63
2023/06/26 01:03:25;;;;;;;10.43;5.25;;;;;;;;;;5061018;28;20078;-76
2023/06/26 01:05:57;;;;;;;12.15;5.07;;;;;;;;;;5036724;28;20044;-68
2023/06/26 01:08:23;;;;;;;;;;;;;;;;;;5044355;28;20017;-74
2023/06/26 01:10:48;;;;;;;5.70;4.93;;;;;;;;;;5051369;28;19917;-75
2023/06/26 01:13:15;;;;;;;6.72;5.22;;;;;;;;;;5054324;28;20044;-65
2023/06/26 01:15:41;;;;;;;8.05;5.13;;;;;;;;;;5038108;28;20053;-65
2023/06/26 01:18:07;;;;;;;5.25;4.60;;;;;;;;;;5026221;28;20075;-65
2023/06/26 01:20:36;;;;;;;9.93;5.15;;;;;;;;;;5035140;28;20082;-66
2023/06/26 01:23:23;;;;;;;9.20;5.22;;;;;;;;;;5047695;28;20086;-65
2023/06/26 01:25:52;;;;;;;6.35;4.68;;;;;;;;;;5047145;28;20041;-63
2023/06/26 01:28:20;;;;;;;6.28;4.82;;;;;;;;;;5049480;28;20025;-67
2023/06/26 01:30:45;;;;;;;8.25;5.00;;;;;;;;;;5020011;28;20075;-67
2023/06/26 01:33:13;;;;;;;8.25;4.80;;;;;;;;;;5032957;28;20029;-65
2023/06/26 01:35:39;;;;;;;9.63;5.05;;;;;;;;;;5055064;28;20033;-67
2023/06/26 01:38:16;;;;;;;8.95;5.43;;;;;;;;;;5035505;28;20036;-66
2023/06/26 01:40:43;;;;;;;6.25;4.90;;;;;;;;;;5038311;28;20029;-72
2023/06/26 01:43:21;;;;;;;8.88;5.22;;;;;;;;;;5052652;28;20029;-76
2023/06/26 01:45:51;;;;;;;11.45;4.90;;;;;;;;;;5045394;28;20040;-74
2023/06/26 01:48:23;;;;;;;11.48;5.03;;;;;;;;;;5025039;28;20032;-75
2023/06/26 01:50:51;;;;;;;7.95;4.95;;;;;;;;;;5058361;28;20120;-71
2023/06/26 01:53:19;;;;;;;13.30;5.47;;;;;;;;;;5048022;28;20067;-70
2023/06/26 01:55:55;;;;;;;7.35;4.95;;;;;;;;;;5038631;28;20036;-70
2023/06/26 01:58:25;;;;;;;10.02;4.68;;;;;;;;;;5047480;28;20060;-70
2023/06/26 02:00:50;;;;;;;10.30;5.30;;;;;;;;;;5036063;28;20083;-71
2023/06/26 02:03:16;;;;;;;11.75;5.20;;;;;;;;;;5055549;28;20036;-70
2023/06/26 02:05:41;;;;;;;6.55;4.55;;;;;;;;;;5046416;28;20056;-70
2023/06/26 02:08:08;;;;;;;8.68;5.20;;;;;;;;;;5034679;28;20043;-67
2023/06/26 02:10:34;;;;;;;6.25;4.40;;;;;;;;;;5053394;28;20038;-70
2023/06/26 02:13:00;;;;;;;8.50;4.72;;;;;;;;;;5051349;28;20033;-71
2023/06/26 02:15:25;;;;;;;7.60;4.82;;;;;;;;;;5036826;28;20060;-71
2023/06/26 02:17:51;;;;;;;6.93;4.85;;;;;;;;;;5061919;28;20021;-70
2023/06/26 02:20:16;;;;;;;12.73;4.70;;;;;;;;;;5028808;28;20040;-71
2023/06/26 02:22:42;;;;;;;14.98;5.53;;;;;;;;;;5036621;28;20037;-71
2023/06/26 02:25:09;;;;;;;5.78;5.18;;;;;;;;;;5051792;28;20052;-71
2023/06/26 02:27:34;;;;;;;8.20;5.50;;;;;;;;;;5053011;28;20033;-70
2023/06/26 02:30:00;;;;;;;7.25;4.93;;;;;;;;;;5046397;28;20037;-71
2023/06/26 02:32:25;;;;;;;6.18;4.70;;;;;;;;;;5060952;28;20061;-71
2023/06/26 02:34:53;;;;;;;5.15;4.45;;;;;;;;;;5035653;28;20087;-69
2023/06/26 02:37:19;;;;;;;7.20;4.88;;;;;;;;;;5039415;28;20052;-70
2023/06/26 02:39:45;;;;;;;8.30;4.70;;;;;;;;;;5035640;28;20021;-71
2023/06/26 02:42:10;;;;;;;7.03;5.15;;;;;;;;;;5024539;28;20037;-71
2023/06/26 02:44:35;;;;;;;6.28;4.63;;;;;;;;;;5035168;28;20498;-71
2023/06/26 02:47:01;;;;;;;10.07;4.60;;;;;;;;;;5038106;28;20040;-71
2023/06/26 02:49:26;;;;;;;5.47;4.50;;;;;;;;;;5041057;28;20037;-72
2023/06/26 02:51:52;;;;;;;6.28;4.28;;;;;;;;;;5024367;28;20048;-70
2023/06/26 02:54:17;;;;;;;7.82;4.88;;;;;;;;;;5053228;28;20025;-71
2023/06/26 02:56:43;;;;;;;7.32;4.50;;;;;;;;;;5055352;28;20060;-72
2023/06/26 02:59:08;;;;;;;7.00;4.93;;;;;;;;;;5025093;28;20083;-71
2023/06/26 03:01:34;;;;;;;5.13;4.50;;;;;;;;;;5036241;28;20037;-71
2023/06/26 03:04:00;;;;;;;6.80;4.68;;;;;;;;;;5048429;28;20021;-71
2023/06/26 03:06:28;;;;;;;6.22;4.43;;;;;;;;;;5020497;28;20049;-70
2023/06/26 03:08:54;;;;;;;7.10;5.65;;;;;;;;;;5023815;28;20036;-70
2023/06/26 03:11:19;;;;;;;12.77;4.70;;;;;;;;;;5045152;28;20041;-71
2023/06/26 03:13:45;;;;;;;5.93;4.18;;;;;;;;;;5010713;28;20402;-71
2023/06/26 03:16:10;;;;;;;6.13;4.47;;;;;;;;;;5051471;28;20057;-71
2023/06/26 03:18:35;;;;;;;8.32;5.45;;;;;;;;;;5042816;28;20033;-71
2023/06/26 03:21:01;;;;;;;7.68;4.72;;;;;;;;;;5052330;28;20037;-71
2023/06/26 03:23:27;;;;;;;9.07;4.88;;;;;;;;;;5060585;28;20029;-71
2023/06/26 03:25:53;;;;;;;13.02;5.00;;;;;;;;;;5032558;28;20037;-70
2023/06/26 03:28:18;;;;;;;12.30;5.28;;;;;;;;;;5043163;28;20044;-72
2023/06/26 03:30:43;;;;;;;8.90;4.97;;;;;;;;;;5033490;28;20119;-71
2023/06/26 03:33:09;;;;;;;5.28;4.78;;;;;;;;;;5047224;28;20450;-72
2023/06/26 03:35:35;;;;;;;5.70;5.20;;;;;;;;;;5048987;28;20086;-71
2023/06/26 03:38:01;;;;;;;6.07;4.97;;;;;;;;;;5056652;28;20036;-71
2023/06/26 03:40:26;;;;;;;7.35;5.40;;;;;;;;;;5047950;28;20074;-71
2023/06/26 03:42:52;;;;;;;13.48;4.82;;;;;;;;;;5055223;28;20035;-71
2023/06/26 03:45:19;;;;;;;5.70;4.88;;;;;;;;;;5053072;28;20041;-71
2023/06/26 03:47:46;;;;;;;10.93;5.63;;;;;;;;;;5048911;28;20387;-73
2023/06/26 03:50:12;;;;;;;9.05;5.28;;;;;;;;;;5036290;28;20033;-73
2023/06/26 03:52:37;;;;;;;15.18;5.65;;;;;;;;;;5038362;28;20119;-72
2023/06/26 03:55:03;;;;;;;6.55;5.30;;;;;;;;;;5037561;28;20103;-71
2023/06/26 03:57:29;;;;;;;6.53;5.10;;;;;;;;;;5054737;28;20560;-71
2023/06/26 03:59:54;;;;;;;8.68;5.25;;;;;;;;;;5031660;28;20017;-72
2023/06/26 04:02:19;;;;;;;9.02;4.82;;;;;;;;;;5061465;28;20028;-71
2023/06/26 04:04:45;;;;;;;7.05;4.72;;;;;;;;;;5035163;28;20336;-72
2023/06/26 04:07:10;;;;;;;7.93;5.60;;;;;;;;;;5036180;28;20033;-71
2023/06/26 04:09:36;;;;;;;9.73;5.35;;;;;;;;;;5015844;28;20028;-71
2023/06/26 04:12:02;;;;;;;6.45;5.60;;;;;;;;;;5048490;28;20089;-72
2023/06/26 04:14:27;;;;;;;8.40;5.20;;;;;;;;;;5018869;28;20017;-72
2023/06/26 04:16:52;;;;;;;5.93;4.95;;;;;;;;;;5034003;28;20140;-71
2023/06/26 04:19:18;;;;;;;8.20;5.32;;;;;;;;;;5047923;28;20025;-71
2023/06/26 04:21:44;;;;;;;7.63;5.38;;;;;;;;;;5036407;28;20093;-71
2023/06/26 04:24:09;;;;;;;7.57;5.38;;;;;;;;;;5048997;28;20471;-72
2023/06/26 04:26:35;;;;;;;9.35;5.00;;;;;;;;;;5042563;28;20116;-72
2023/06/26 04:29:00;;;;;;;10.88;5.65;;;;;;;;;;5040295;28;20032;-72
2023/06/26 04:31:26;;;;;;;6.75;5.00;;;;;;;;;;5037992;28;20693;-72
2023/06/26 04:33:54;;;;;;;10.52;5.40;;;;;;;;;;5053303;28;20497;-72
2023/06/26 04:36:20;;;;;;;11.57;5.88;;;;;;;;;;5006894;28;20049;-69
2023/06/26 04:38:45;;;;;;;6.22;4.90;;;;;;;;;;5050082;28;20036;-72
2023/06/26 04:41:11;;;;;;;6.80;5.30;;;;;;;;;;5022123;28;20041;-71
2023/06/26 04:43:36;;;;;;;5.78;5.10;;;;;;;;;;5051328;28;20548;-72
2023/06/26 04:46:02;;;;;;;11.25;5.90;;;;;;;;;;5012988;28;20034;-72
2023/06/26 04:48:28;;;;;;;9.48;4.93;;;;;;;;;;5027515;28;20040;-70
2023/06/26 04:50:55;;;;;;;9.30;5.30;;;;;;;;;;5030541;28;20037;-71
2023/06/26 04:53:22;;;;;;;11.20;5.78;;;;;;;;;;5029770;28;20234;-71
2023/06/26 04:55:49;;;;;;;8.68;6.07;;;;;;;;;;5050339;28;20059;-71
2023/06/26 04:58:14;;;;;;;13.00;6.18;;;;;;;;;;5024981;28;20032;-72
2023/06/26 05:00:42;;;;;;;13.57;5.82;;;;;;;;;;5032891;28;20761;-72
2023/06/26 05:03:08;;;;;;;9.93;5.20;;;;;;;;;;5030082;28;20071;-72
2023/06/26 05:05:34;;;;;;;7.85;5.38;;;;;;;;;;5047654;28;20091;-72
2023/06/26 05:08:16;;;;;;;9.95;5.75;;;;;;;;;;5041715;28;20033;-72
2023/06/26 05:10:42;;;;;;;11.50;6.40;;;;;;;;;;5056742;28;20032;-72
2023/06/26 05:13:08;;;;;;;10.40;5.38;;;;;;;;;;5056764;28;20029;-73
2023/06/26 05:15:33;;;;;;;15.55;6.18;;;;;;;;;;5055326;28;20073;-73
2023/06/26 05:17:59;;;;;;;10.00;5.85;;;;;;;;;;5052443;28;20083;-73
2023/06/26 05:20:24;;;;;;;10.60;6.38;;;;;;;;;;5055627;28;20028;-73
2023/06/26 05:22:50;;;;;;;8.02;6.07;;;;;;;;;;5058476;28;20029;-73
2023/06/26 05:25:15;;;;;;;7.68;5.82;;;;;;;;;;5035406;28;20701;-72
2023/06/26 05:27:42;;;;;;;10.18;7.22;;;;;;;;;;5030018;28;20029;-70
2023/06/26 05:30:08;;;;;;;8.80;6.07;;;;;;;;;;5050922;28;20044;-72
2023/06/26 05:32:35;;;;;;;8.77;5.97;;;;;;;;;;5011276;28;20063;-72
2023/06/26 05:35:03;;;;;;;8.73;6.45;;;;;;;;;;5049258;28;20033;-72
2023/06/26 05:37:30;;;;;;;8.60;6.30;;;;;;;;;;5051686;28;20035;-72
2023/06/26 05:39:56;;;;;;;9.75;6.32;;;;;;;;;;5052599;28;20096;-72
2023/06/26 05:42:22;;;;;;;8.15;6.13;;;;;;;;;;5054120;28;20028;-72
2023/06/26 05:44:47;;;;;;;7.57;5.72;;;;;;;;;;5050244;28;20052;-71
2023/06/26 05:47:12;;;;;;;8.90;6.50;;;;;;;;;;5033734;28;20040;-73
2023/06/26 05:49:38;;;;;;;10.20;6.65;;;;;;;;;;5036366;28;20021;-72
2023/06/26 05:52:04;;;;;;;11.05;7.22;;;;;;;;;;5051692;28;20033;-72
2023/06/26 05:54:29;;;;;;;9.20;6.93;;;;;;;;;;5022663;28;20053;-73
2023/06/26 05:56:59;;;;;;;12.45;7.03;;;;;;;;;;5003486;28;20056;-72
2023/06/26 05:59:26;;;;;;;10.60;7.10;;;;;;;;;;5052488;28;20068;-73
2023/06/26 06:01:52;;;;;;;19.00;7.88;;;;;;;;;;5036321;28;20362;-72
2023/06/26 06:04:17;;;;;;;14.25;7.40;;;;;;;;;;5038613;28;20036;-73
2023/06/26 06:06:43;;;;;;;11.13;7.18;;;;;;;;;;5053313;28;20032;-74
2023/06/26 06:09:08;;;;;;;10.18;7.22;;;;;;;;;;5018918;28;20029;-73
2023/06/26 06:11:33;;;;;;;22.40;7.28;;;;;;;;;;5001649;28;20041;-74
2023/06/26 06:13:59;;;;;;;8.60;6.85;;;;;;;;;;5050972;28;20028;-73
2023/06/26 06:16:25;;;;;;;13.57;6.93;;;;;;;;;;5037438;28;20056;-73
2023/06/26 06:18:51;;;;;;;11.65;7.38;;;;;;;;;;5039856;28;20431;-74
2023/06/26 06:21:16;;;;;;;13.98;7.57;;;;;;;;;;5056169;28;20037;-73
2023/06/26 06:23:41;;;;;;;27.55;7.93;;;;;;;;;;5035712;28;20025;-74
2023/06/26 06:26:07;;;;;;;13.82;8.18;;;;;;;;;;5031030;28;20041;-73
2023/06/26 06:28:32;;;;;;;12.20;7.80;;;;;;;;;;5033347;28;20039;-72
2023/06/26 06:30:58;;;;;;;12.65;8.13;;;;;;;;;;5036984;28;20572;-72
2023/06/26 06:33:23;;;;;;;11.75;8.15;;;;;;;;;;5030833;28;20036;-74
2023/06/26 06:35:49;;;;;;;9.60;7.75;;;;;;;;;;5039848;28;20045;-75
2023/06/26 06:38:14;;;;;;;13.68;8.45;;;;;;;;;;5040263;28;20033;-74
2023/06/26 06:40:39;;;;;;;11.65;8.00;;;;;;;;;;5047202;28;20037;-73
2023/06/26 06:43:05;;;;;;;12.05;7.53;;;;;;;;;;5042102;28;20040;-74
2023/06/26 06:45:30;;;;;;;11.20;7.95;;;;;;;;;;5052711;28;20518;-74
2023/06/26 06:47:56;;;;;;;8.23;7.38;;;;;;;;;;5033077;28;20037;-74
2023/06/26 06:50:21;;;;;;;14.82;8.02;;;;;;;;;;5032584;28;20040;-73
2023/06/26 06:52:46;;;;;;;9.55;8.10;;;;;;;;;;5033232;28;20018;-74
2023/06/26 06:55:12;;;;;;;9.82;7.72;;;;;;;;;;5043734;28;20579;-74
2023/06/26 06:57:39;;;;;;;10.07;7.80;;;;;;;;;;5030526;28;20037;-74
2023/06/26 07:00:11;;;;;;;9.63;7.85;;;;;;;;;;5050999;28;20043;-74
2023/06/26 07:02:41;;;;;;;15.02;7.50;;;;;;;;;;5019542;28;20039;-74
2023/06/26 07:05:07;;;;;;;10.60;7.13;;;;;;;;;;5049660;28;20037;-74
2023/06/26 07:07:34;;;;;;;17.75;7.88;;;;;;;;;;5024885;28;20119;-74
2023/06/26 07:10:08;;;;;;;13.90;7.30;;;;;;;;;;5051141;28;20032;-74
2023/06/26 07:12:34;;;;;;;14.10;7.22;;;;;;;;;;5054388;28;20069;-75
2023/06/26 07:15:01;;;;;;;15.95;6.57;;;;;;;;;;5056306;28;20027;-74
2023/06/26 07:17:26;;;;;;;7.80;6.72;;;;;;;;;;5040554;28;20025;-74
2023/06/26 07:19:52;;;;;;;7.78;6.90;;;;;;;;;;5053360;28;20400;-74
2023/06/26 07:22:20;;;;;;;16.63;6.65;;;;;;;;;;5052981;28;20033;-74
2023/06/26 07:24:46;;;;;;;12.27;6.60;;;;;;;;;;5012333;28;20017;-74
2023/06/26 07:27:11;;;;;;;7.80;6.50;;;;;;;;;;5046729;28;20191;-74
2023/06/26 07:29:37;;;;;;;21.35;6.90;;;;;;;;;;5055309;28;20102;-74
2023/06/26 07:32:02;;;;;;;8.90;6.68;;;;;;;;;;5040068;28;20075;-74
2023/06/26 07:34:28;;;;;;;12.18;6.65;;;;;;;;;;5029644;28;20035;-74
2023/06/26 07:36:53;;;;;;;12.95;6.57;;;;;;;;;;5039780;28;20035;-74
2023/06/26 07:39:19;;;;;;;10.57;6.88;;;;;;;;;;5054553;28;20744;-74
2023/06/26 07:41:44;;;;;;;13.60;6.80;;;;;;;;;;5023166;28;20041;-75
2023/06/26 07:44:10;;;;;;;6.82;6.05;;;;;;;;;;5054671;28;20071;-73
2023/06/26 07:46:35;;;;;;;15.25;6.43;;;;;;;;;;5030260;28;20091;-73
2023/06/26 07:49:00;;;;;;;13.13;6.20;;;;;;;;;;5052668;28;20043;-74
2023/06/26 07:51:26;;;;;;;10.55;6.35;;;;;;;;;;5029807;28;20064;-71
2023/06/26 07:53:51;;;;;;;8.60;6.15;;;;;;;;;;5033046;28;20032;-72
2023/06/26 07:56:17;;;;;;;6.78;5.95;;;;;;;;;;5035961;28;20056;-71
2023/06/26 07:58:42;;;;;;;8.73;5.88;;;;;;;;;;5040506;28;20382;-71
2023/06/26 08:01:07;;;;;;;8.73;6.40;;;;;;;;;;5030080;28;20053;-71
2023/06/26 08:03:33;;;;;;;15.80;5.95;;;;;;;;;;5041464;28;20029;-73
2023/06/26 08:05:58;;;;;;;12.10;6.22;;;;;;;;;;5018747;28;20064;-74
2023/06/26 08:08:24;;;;;;;8.73;6.03;;;;;;;;;;5038812;28;20036;-73
2023/06/26 08:10:49;;;;;;;8.52;6.20;;;;;;;;;;5022742;28;20037;-71
2023/06/26 08:13:14;;;;;;;12.18;5.95;;;;;;;;;;5046084;28;20025;-74
2023/06/26 08:15:40;;;;;;;7.15;6.00;;;;;;;;;;5015375;28;20099;-73
2023/06/26 08:18:05;;;;;;;11.73;6.30;;;;;;;;;;5023304;28;20032;-74
2023/06/26 08:20:31;;;;;;;11.30;6.55;;;;;;;;;;5033867;28;20037;-73
2023/06/26 08:22:56;;;;;;;19.60;6.32;;;;;;;;;;5021027;28;20490;-72
2023/06/26 08:25:22;;;;;;;11.35;6.60;;;;;;;;;;5033079;28;20026;-74
2023/06/26 08:27:48;;;;;;;10.27;6.50;;;;;;;;;;5038245;28;20104;-73
2023/06/26 08:30:13;;;;;;;7.93;6.35;;;;;;;;;;5031965;28;20072;-72
2023/06/26 08:32:39;;;;;;;15.55;6.70;;;;;;;;;;5053518;28;20061;-72
2023/06/26 08:35:06;;;;;;;9.77;6.20;;;;;;;;;;5034659;28;20108;-73
2023/06/26 08:37:32;;;;;;;15.55;6.18;;;;;;;;;;5051363;28;20028;-72
2023/06/26 08:40:00;;;;;;;9.32;6.10;;;;;;;;;;5033833;28;20044;-72
2023/06/26 08:42:26;;;;;;;12.77;6.35;;;;;;;;;;5045654;28;20021;-72
2023/06/26 08:44:52;;;;;;;29.40;6.57;;;;;;;;;;5042653;28;20087;-72
2023/06/26 08:47:18;;;;;;;7.75;6.20;;;;;;;;;;5042025;28;20115;-71
2023/06/26 08:49:55;;;;;;;7.93;5.85;;;;;;;;;;5056566;28;20029;-72
2023/06/26 08:52:30;;;;;;;7.93;6.47;;;;;;;;;;5050087;28;20055;-71
2023/06/26 08:54:58;;;;;;;8.35;5.40;;;;;;;;;;5045606;28;20021;-72
2023/06/26 08:57:26;;;;;;;9.20;5.80;;;;;;;;;;5039247;28;20036;-72
2023/06/26 08:59:52;;;;;;;7.57;5.40;;;;;;;;;;5022056;28;20099;-71
2023/06/26 09:02:20;;;;;;;10.48;5.97;;;;;;;;;;5056316;28;20043;-74
2023/06/26 09:04:48;;;;;;;5.80;5.25;;;;;;;;;;5038176;28;20033;-71
2023/06/26 09:07:13;;;;;;;10.18;5.97;;;;;;;;;;5038293;28;20068;-72
2023/06/26 09:09:39;;;;;;;9.60;5.47;;;;;;;;;;5021035;28;20029;-72
2023/06/26 09:12:05;;;;;;;17.65;5.30;;;;;;;;;;5034234;28;20041;-73
2023/06/26 09:14:30;;;;;;;7.88;5.75;;;;;;;;;;5036408;28;20028;-72
2023/06/26 09:16:56;;;;;;;7.20;5.57;;;;;;;;;;4983260;28;1188633;-73
2023/06/26 09:19:21;;;;;;;5.90;4.90;;;;;;;;;;5038597;28;20430;-72
2023/06/26 09:21:49;;;;;;;11.02;5.82;;;;;;;;;;5021042;28;20091;-72
2023/06/26 09:24:16;;;;;;;11.38;5.43;;;;;;;;;;5055187;28;20095;-73
2023/06/26 09:26:42;;;;;;;5.57;5.13;;;;;;;;;;5050431;28;20132;-71
2023/06/26 09:29:09;;;;;;;11.07;5.75;;;;;;;;;;5055640;28;20041;-72
2023/06/26 09:31:39;;;;;;;5.60;5.10;;;;;;;;;;5051122;28;20402;-72
2023/06/26 09:34:04;;;;;;;8.02;4.90;;;;;;;;;;5036247;28;20390;-72
2023/06/26 09:36:36;;;;;;;5.13;4.78;;;;;;;;;;5049869;28;20043;-72
2023/06/26 09:39:10;;;;;;;6.30;5.70;;;;;;;;;;5049040;28;20500;-72
2023/06/26 09:41:37;;;;;;;6.30;5.50;;;;;;;;;;5035039;28;20409;-73
2023/06/26 09:44:05;;;;;;;5.15;4.75;;;;;;;;;;5039996;28;20033;-73
2023/06/26 09:46:31;;;;;;;5.63;5.10;;;;;;;;;;5056080;28;20524;-72
2023/06/26 09:49:07;;;;;;;10.65;5.20;;;;;;;;;;5051226;28;20029;-72
2023/06/26 09:51:34;;;;;;;11.43;5.18;;;;;;;;;;5028648;28;20098;-73
2023/06/26 09:54:01;;;;;;;7.25;5.25;;;;;;;;;;5043930;28;20079;-71
2023/06/26 09:56:27;;;;;;;6.47;5.32;;;;;;;;;;5024577;28;20065;-72
2023/06/26 09:58:56;;;;;;;5.93;5.35;;;;;;;;;;5041774;28;20025;-72
2023/06/26 10:01:21;;;;;;;7.97;5.15;;;;;;;;;;5056431;28;20033;-71
2023/06/26 10:03:47;;;;;;;8.00;5.57;;;;;;;;;;5049129;28;20070;-72
2023/06/26 10:06:13;;;;;;;9.20;5.20;;;;;;;;;;5054032;28;20036;-72
2023/06/26 10:08:40;;;;;;;9.80;5.80;;;;;;;;;;5036751;28;20017;-72
2023/06/26 10:11:11;;;;;;;7.72;4.97;;;;;;;;;;5047579;28;20037;-73
2023/06/26 10:13:40;;;;;;;12.43;4.72;;;;;;;;;;5038986;28;20020;-72
2023/06/26 10:16:08;;;;;;;6.95;5.10;;;;;;;;;;5024850;28;20056;-72
2023/06/26 10:18:36;;;;;;;5.55;4.90;;;;;;;;;;5038007;28;20037;-72
2023/06/26 10:21:03;;;;;;;5.47;5.00;;;;;;;;;;5035443;28;20037;-71
2023/06/26 10:23:30;;;;;;;7.68;5.22;;;;;;;;;;5053953;28;20471;-71
2023/06/26 10:25:58;;;;;;;5.82;5.20;;;;;;;;;;5052918;28;20171;-71
2023/06/26 10:28:27;;;;;;;6.85;5.30;;;;;;;;;;5035089;28;20052;-72
2023/06/26 10:30:55;;;;;;;6.00;5.50;;;;;;;;;;5050899;28;20033;-71
2023/06/26 10:33:21;;;;;;;5.70;4.95;;;;;;;;;;5017337;28;20025;-70
2023/06/26 10:35:46;;;;;;;12.05;5.38;;;;;;;;;;5033183;28;20048;-70
2023/06/26 10:38:12;;;;;;;5.85;5.05;;;;;;;;;;5021264;28;20513;-72
2023/06/26 10:40:45;;;;;;;6.70;5.30;;;;;;;;;;5039847;28;20124;-73
2023/06/26 10:43:15;;;;;;;5.55;5.07;;;;;;;;;;5037176;28;20017;-72
2023/06/26 10:45:52;;;;;;;5.78;5.25;;;;;;;;;;5051287;28;20126;-71
2023/06/26 10:48:18;;;;;;;6.20;5.60;;;;;;;;;;5045218;28;20565;-71
2023/06/26 10:50:47;;;;;;;7.93;4.90;;;;;;;;;;5047404;28;20061;-70
2023/06/26 10:53:23;;;;;;;6.72;5.47;;;;;;;;;;5054827;28;20557;-71
2023/06/26 10:56:01;;;;;;;10.50;5.63;;;;;;;;;;5053893;28;20037;-71
2023/06/26 10:58:47;;;;;;;6.53;5.15;;;;;;;;;;5039191;28;20028;-70
2023/06/26 11:01:25;;;;;;;15.38;5.32;;;;;;;;;;5052716;28;20048;-70
2023/06/26 11:04:03;;;;;;;6.60;5.13;;;;;;;;;;5053355;28;20032;-69
2023/06/26 11:06:30;;;;;;;7.75;5.15;;;;;;;;;;5057445;28;20128;-70
2023/06/26 11:09:04;;;;;;;6.43;5.82;;;;;;;;;;5044417;28;20024;-70
2023/06/26 11:11:52;;;;;;;5.70;5.20;;;;;;;;;;5022847;28;20495;-70
2023/06/26 11:14:25;;;;;;;9.57;5.75;;;;;;;;;;5056274;28;20017;-70
2023/06/26 11:16:51;;;;;;;10.43;5.18;;;;;;;;;;5055834;28;20406;-70
2023/06/26 11:19:18;;;;;;;6.70;5.60;;;;;;;;;;5054776;28;20116;-70
2023/06/26 11:21:44;;;;;;;6.78;5.20;;;;;;;;;;5053339;28;20040;-70
2023/06/26 11:24:11;;;;;;;9.70;5.45;;;;;;;;;;5049667;28;20033;-70
2023/06/26 11:26:40;;;;;;;5.82;5.32;;;;;;;;;;5032293;28;20033;-71
2023/06/26 11:29:06;;;;;;;10.15;5.57;;;;;;;;;;5051953;28;20053;-70
2023/06/26 11:31:37;;;;;;;6.03;5.28;;;;;;;;;;5054920;28;20048;-70
2023/06/26 11:34:07;;;;;;;10.65;5.60;;;;;;;;;;5055795;28;20447;-70
2023/06/26 11:36:35;;;;;;;6.20;5.15;;;;;;;;;;5040141;28;20045;-70
2023/06/26 11:39:02;;;;;;;10.93;5.03;;;;;;;;;;5054101;28;20016;-70
2023/06/26 11:41:31;;;;;;;10.70;5.30;;;;;;;;;;5045852;28;20037;-70
2023/06/26 11:44:01;;;;;;;6.00;5.43;;;;;;;;;;5033052;28;20029;-70
2023/06/26 11:46:27;;;;;;;9.45;5.35;;;;;;;;;;5042588;28;20041;-71
2023/06/26 11:48:53;;;;;;;6.47;5.55;;;;;;;;;;5034208;28;20057;-71
2023/06/26 11:51:19;;;;;;;6.38;5.50;;;;;;;;;;5047922;28;20041;-72
2023/06/26 11:53:46;;;;;;;9.82;5.75;;;;;;;;;;5021565;28;20031;-72
2023/06/26 11:56:13;;;;;;;8.30;5.13;;;;;;;;;;5036695;28;20037;-70
2023/06/26 11:59:02;;;;;;;5.70;5.20;;;;;;;;;;5053927;28;20033;-71
2023/06/26 12:01:41;;;;;;;8.38;5.32;;;;;;;;;;5045215;28;20039;-70
2023/06/26 12:04:09;;;;;;;7.63;5.43;;;;;;;;;;5037961;28;20088;-71
2023/06/26 12:06:37;;;;;;;10.45;5.88;;;;;;;;;;5017695;28;20029;-70
2023/06/26 12:09:05;;;;;;;9.30;5.35;;;;;;;;;;5054081;28;20105;-69
2023/06/26 12:11:32;;;;;;;8.65;5.28;;;;;;;;;;5053654;28;20040;-69
2023/06/26 12:13:59;;;;;;;7.18;5.03;;;;;;;;;;5038718;28;20031;-71
2023/06/26 12:16:25;;;;;;;9.05;5.28;;;;;;;;;;5040156;28;20049;-70
2023/06/26 12:18:51;;;;;;;15.70;6.07;;;;;;;;;;5039217;28;20028;-71
2023/06/26 12:21:38;;;;;;;8.77;5.68;;;;;;;;;;5054202;28;20048;-70
2023/06/26 12:24:05;;;;;;;5.82;5.35;;;;;;;;;;5057483;28;20029;-70
2023/06/26 12:26:33;;;;;;;8.75;5.60;;;;;;;;;;5047576;28;20032;-71
2023/06/26 12:29:06;;;;;;;7.28;5.50;;;;;;;;;;5036406;28;20053;-69
2023/06/26 12:31:33;;;;;;;5.97;5.47;;;;;;;;;;5036137;28;20039;-70
2023/06/26 12:33:59;;;;;;;8.75;5.72;;;;;;;;;;5034834;28;20021;-70
2023/06/26 12:36:24;;;;;;;6.40;5.35;;;;;;;;;;5051037;28;20047;-70
2023/06/26 12:38:50;;;;;;;11.38;5.38;;;;;;;;;;5034465;28;20017;-70
2023/06/26 12:41:16;;;;;;;5.65;5.25;;;;;;;;;;5026580;28;20062;-69
2023/06/26 12:43:42;;;;;;;6.57;5.05;;;;;;;;;;5025988;28;20028;-71
2023/06/26 12:46:08;;;;;;;7.18;5.85;;;;;;;;;;5040603;28;20032;-69
2023/06/26 12:48:46;;;;;;;7.65;5.68;;;;;;;;;;5048672;28;20060;-72
2023/06/26 12:51:13;;;;;;;9.27;5.13;;;;;;;;;;5047252;28;20374;-70
2023/06/26 12:53:41;;;;;;;9.57;5.63;;;;;;;;;;5043199;28;20021;-71
2023/06/26 12:56:11;;;;;;;7.00;5.43;;;;;;;;;;5049973;28;20124;-70
2023/06/26 12:58:37;;;;;;;11.85;5.57;;;;;;;;;;5050282;28;20039;-71
2023/06/26 13:01:04;;;;;;;7.13;5.57;;;;;;;;;;5033107;28;20037;-71
2023/06/26 13:03:30;;;;;;;9.98;5.82;;;;;;;;;;5056185;28;20037;-71
2023/06/26 13:05:55;;;;;;;8.48;5.45;;;;;;;;;;5052526;28;20120;-70
2023/06/26 13:08:21;;;;;;;17.63;6.60;;;;;;;;;;5052538;28;20029;-69
2023/06/26 13:10:46;;;;;;;13.13;5.30;;;;;;;;;;5028225;28;20529;-70
2023/06/26 13:13:11;;;;;;;5.60;5.10;;;;;;;;;;5029858;28;20052;-70
2023/06/26 13:15:37;;;;;;;9.60;5.43;;;;;;;;;;5052229;28;20056;-70
2023/06/26 13:18:03;;;;;;;8.20;5.20;;;;;;;;;;5052648;28;20543;-71
2023/06/26 13:20:29;;;;;;;11.25;5.50;;;;;;;;;;5055284;28;20099;-71
2023/06/26 13:22:55;;;;;;;7.15;5.80;;;;;;;;;;5044677;28;20029;-70
2023/06/26 13:25:21;;;;;;;9.65;5.47;;;;;;;;;;5023231;28;20040;-70
2023/06/26 13:27:47;;;;;;;6.28;5.38;;;;;;;;;;5021748;28;20052;-70
2023/06/26 13:30:13;;;;;;;8.75;5.45;;;;;;;;;;5053903;28;20044;-71
2023/06/26 13:32:39;;;;;;;11.10;5.93;;;;;;;;;;5035914;28;20112;-73
2023/06/26 13:35:05;;;;;;;7.15;5.25;;;;;;;;;;5057559;28;20060;-70
2023/06/26 13:37:31;;;;;;;7.15;5.22;;;;;;;;;;5023644;28;20067;-72
2023/06/26 13:39:59;;;;;;;9.90;5.53;;;;;;;;;;5037926;28;20718;-70
2023/06/26 13:42:24;;;;;;;6.10;5.53;;;;;;;;;;5027135;28;20025;-70
2023/06/26 13:44:50;;;;;;;7.75;5.80;;;;;;;;;;5028867;28;20044;-70
2023/06/26 13:47:15;;;;;;;7.30;5.25;;;;;;;;;;5030741;28;20112;-71
2023/06/26 13:49:41;;;;;;;6.57;5.47;;;;;;;;;;5056590;28;20029;-71
2023/06/26 13:52:10;;;;;;;7.57;5.28;;;;;;;;;;5041199;28;20540;-71
2023/06/26 13:54:39;;;;;;;5.63;5.00;;;;;;;;;;5021724;28;20033;-69
2023/06/26 13:57:05;;;;;;;14.10;5.22;;;;;;;;;;5049044;28;20375;-70
2023/06/26 13:59:30;;;;;;;6.45;5.32;;;;;;;;;;5032786;28;20025;-69
2023/06/26 14:01:56;;;;;;;12.30;5.30;;;;;;;;;;5058172;28;20029;-70
2023/06/26 14:04:22;;;;;;;13.05;5.70;;;;;;;;;;5041442;28;20025;-69
2023/06/26 14:06:47;;;;;;;9.65;5.55;;;;;;;;;;5047588;28;20371;-70
2023/06/26 14:09:13;;;;;;;6.60;5.10;;;;;;;;;;5059230;28;20383;-69
2023/06/26 14:11:38;;;;;;;5.38;4.93;;;;;;;;;;5020758;28;20144;-70
2023/06/26 14:14:04;;;;;;;5.97;5.32;;;;;;;;;;5036334;28;20039;-70
2023/06/26 14:16:29;;;;;;;9.75;5.43;;;;;;;;;;5027481;28;20050;-70
2023/06/26 14:18:55;;;;;;;9.40;5.30;;;;;;;;;;5017719;28;20038;-70
2023/06/26 14:21:20;;;;;;;8.90;5.43;;;;;;;;;;5017693;28;20451;-70
2023/06/26 14:23:46;;;;;;;5.75;5.25;;;;;;;;;;5012367;28;20388;-70
2023/06/26 14:26:11;;;;;;;6.07;5.13;;;;;;;;;;5006838;28;20085;-69
2023/06/26 14:28:39;;;;;;;5.60;5.03;;;;;;;;;;4999575;28;20030;-70
2023/06/26 14:31:05;;;;;;;6.55;5.65;;;;;;;;;;5021303;28;20104;-71
2023/06/26 14:33:30;;;;;;;7.30;5.60;;;;;;;;;;5024496;28;20030;-70
2023/06/26 14:35:56;;;;;;;6.35;5.57;;;;;;;;;;5030137;28;20049;-69